sensor_id;sensor_type;location;lat;lon;timestamp;temperature;humidity
19862;DHT22;10093;48.148;8.542;2022-12-24T00:00:31;7.60;99.90
19862;DHT22;10093;48.148;8.542;2022-12-24T00:02:57;7.70;99.90
19862;DHT22;10093;48.148;8.542;2022-12-24T00:05:23;7.60;99.90
19862;DHT22;10093;48.148;8.542;2022-12-24T00:07:48;7.60;99.90
19862;DHT22;10093;48.148;8.542;2022-12-24T00:10:14;7.70;99.90
19862;DHT22;10093;48.148;8.542;2022-12-24T00:12:40;7.50;99.90
19862;DHT22;10093;48.148;8.542;2022-12-24T00:15:06;7.30;99.90
19862;DHT22;10093;48.148;8.542;2022-12-24T00:17:32;7.10;99.90
19862;DHT22;10093;48.148;8.542;2022-12-24T00:19:58;7.00;99.90
19862;DHT22;10093;48.148;8.542;2022-12-24T00:22:24;6.90;99.90
19862;DHT22;10093;48.148;8.542;2022-12-24T00:24:49;6.80;99.90
19862;DHT22;10093;48.148;8.542;2022-12-24T00:27:15;6.70;99.90
19862;DHT22;10093;48.148;8.542;2022-12-24T00:29:41;6.70;99.90
19862;DHT22;10093;48.148;8.542;2022-12-24T00:32:07;6.70;99.90
19862;DHT22;10093;48.148;8.542;2022-12-24T00:34:37;6.60;99.90
19862;DHT22;10093;48.148;8.542;2022-12-24T00:37:04;6.50;99.90
19862;DHT22;10093;48.148;8.542;2022-12-24T00:39:30;6.40;99.90
19862;DHT22;10093;48.148;8.542;2022-12-24T00:41:55;6.40;99.90
19862;DHT22;10093;48.148;8.542;2022-12-24T00:44:21;6.20;99.90
19862;DHT22;10093;48.148;8.542;2022-12-24T00:46:47;6.10;99.90
19862;DHT22;10093;48.148;8.542;2022-12-24T00:49:12;6.20;99.90
19862;DHT22;10093;48.148;8.542;2022-12-24T00:51:38;6.20;99.90
19862;DHT22;10093;48.148;8.542;2022-12-24T00:54:04;6.10;99.90
19862;DHT22;10093;48.148;8.542;2022-12-24T00:56:30;6.30;99.90
19862;DHT22;10093;48.148;8.542;2022-12-24T00:58:56;6.60;99.90
19862;DHT22;10093;48.148;8.542;2022-12-24T01:01:22;6.50;99.90
19862;DHT22;10093;48.148;8.542;2022-12-24T01:03:48;6.60;99.90
19862;DHT22;10093;48.148;8.542;2022-12-24T01:06:18;6.40;99.90
19862;DHT22;10093;48.148;8.542;2022-12-24T01:15:36;6.50;99.90
19862;DHT22;10093;48.148;8.542;2022-12-24T01:18:01;6.40;99.90
19862;DHT22;10093;48.148;8.542;2022-12-24T01:20:27;6.70;99.90
19862;DHT22;10093;48.148;8.542;2022-12-24T01:22:55;6.70;99.90
19862;DHT22;10093;48.148;8.542;2022-12-24T01:25:21;6.60;99.90
19862;DHT22;10093;48.148;8.542;2022-12-24T01:27:46;6.40;99.90
19862;DHT22;10093;48.148;8.542;2022-12-24T01:30:13;6.40;99.90
19862;DHT22;10093;48.148;8.542;2022-12-24T01:32:39;6.30;99.90
19862;DHT22;10093;48.148;8.542;2022-12-24T01:35:05;6.30;99.90
19862;DHT22;10093;48.148;8.542;2022-12-24T01:37:31;6.40;99.90
19862;DHT22;10093;48.148;8.542;2022-12-24T01:39:57;6.40;99.90
19862;DHT22;10093;48.148;8.542;2022-12-24T01:42:47;6.40;99.90
19862;DHT22;10093;48.148;8.542;2022-12-24T01:45:45;6.60;99.90
19862;DHT22;10093;48.148;8.542;2022-12-24T01:48:28;6.60;99.90
19862;DHT22;10093;48.148;8.542;2022-12-24T01:54:07;6.70;99.90
19862;DHT22;10093;48.148;8.542;2022-12-24T01:56:35;6.90;99.90
19862;DHT22;10093;48.148;8.542;2022-12-24T01:59:09;6.90;99.90
19862;DHT22;10093;48.148;8.542;2022-12-24T02:01:36;7.00;99.90
19862;DHT22;10093;48.148;8.542;2022-12-24T02:04:08;6.90;99.90
19862;DHT22;10093;48.148;8.542;2022-12-24T02:06:36;6.80;99.90
19862;DHT22;10093;48.148;8.542;2022-12-24T02:09:02;7.00;99.90
19862;DHT22;10093;48.148;8.542;2022-12-24T02:11:29;7.30;99.90
19862;DHT22;10093;48.148;8.542;2022-12-24T02:13:58;7.50;99.90
19862;DHT22;10093;48.148;8.542;2022-12-24T02:22:30;7.60;99.90
19862;DHT22;10093;48.148;8.542;2022-12-24T02:28:14;7.60;99.90
19862;DHT22;10093;48.148;8.542;2022-12-24T02:30:58;7.70;99.90
19862;DHT22;10093;48.148;8.542;2022-12-24T02:33:49;7.80;99.90
19862;DHT22;10093;48.148;8.542;2022-12-24T02:36:24;7.80;99.90
19862;DHT22;10093;48.148;8.542;2022-12-24T02:41:34;7.80;99.90
19862;DHT22;10093;48.148;8.542;2022-12-24T02:44:23;7.80;99.90
19862;DHT22;10093;48.148;8.542;2022-12-24T02:46:50;7.80;99.90
19862;DHT22;10093;48.148;8.542;2022-12-24T02:49:16;8.00;99.90
19862;DHT22;10093;48.148;8.542;2022-12-24T02:51:42;7.80;99.90
19862;DHT22;10093;48.148;8.542;2022-12-24T02:54:07;7.80;99.90
19862;DHT22;10093;48.148;8.542;2022-12-24T02:59:33;7.50;99.90
19862;DHT22;10093;48.148;8.542;2022-12-24T03:02:34;7.40;99.90
19862;DHT22;10093;48.148;8.542;2022-12-24T03:05:08;7.20;99.90
19862;DHT22;10093;48.148;8.542;2022-12-24T03:07:37;7.00;99.90
19862;DHT22;10093;48.148;8.542;2022-12-24T03:12:45;6.60;99.90
19862;DHT22;10093;48.148;8.542;2022-12-24T03:15:14;6.40;99.90
19862;DHT22;10093;48.148;8.542;2022-12-24T03:17:41;6.30;99.90
19862;DHT22;10093;48.148;8.542;2022-12-24T03:20:10;6.20;99.90
19862;DHT22;10093;48.148;8.542;2022-12-24T03:22:37;6.20;99.90
19862;DHT22;10093;48.148;8.542;2022-12-24T03:25:04;6.30;99.90
19862;DHT22;10093;48.148;8.542;2022-12-24T03:27:31;6.20;99.90
19862;DHT22;10093;48.148;8.542;2022-12-24T03:29:58;6.30;99.90
19862;DHT22;10093;48.148;8.542;2022-12-24T03:32:29;6.20;99.90
19862;DHT22;10093;48.148;8.542;2022-12-24T03:34:55;6.00;99.90
19862;DHT22;10093;48.148;8.542;2022-12-24T03:37:22;5.90;99.90
19862;DHT22;10093;48.148;8.542;2022-12-24T03:39:47;5.80;99.90
19862;DHT22;10093;48.148;8.542;2022-12-24T03:42:13;5.70;99.90
19862;DHT22;10093;48.148;8.542;2022-12-24T03:44:39;5.70;99.90
19862;DHT22;10093;48.148;8.542;2022-12-24T03:47:04;5.60;99.90
19862;DHT22;10093;48.148;8.542;2022-12-24T03:49:30;5.60;99.90
19862;DHT22;10093;48.148;8.542;2022-12-24T03:51:56;5.80;99.90
19862;DHT22;10093;48.148;8.542;2022-12-24T03:54:21;5.90;99.90
19862;DHT22;10093;48.148;8.542;2022-12-24T03:56:47;5.80;99.90
19862;DHT22;10093;48.148;8.542;2022-12-24T03:59:12;5.80;99.90
19862;DHT22;10093;48.148;8.542;2022-12-24T04:01:38;5.80;99.90
19862;DHT22;10093;48.148;8.542;2022-12-24T04:04:04;5.70;99.90
19862;DHT22;10093;48.148;8.542;2022-12-24T04:06:30;5.90;99.90
19862;DHT22;10093;48.148;8.542;2022-12-24T04:08:55;5.90;99.90
19862;DHT22;10093;48.148;8.542;2022-12-24T04:11:21;5.90;99.90
19862;DHT22;10093;48.148;8.542;2022-12-24T04:13:46;6.10;99.90
19862;DHT22;10093;48.148;8.542;2022-12-24T04:16:13;6.00;99.90
19862;DHT22;10093;48.148;8.542;2022-12-24T04:18:40;6.10;99.90
19862;DHT22;10093;48.148;8.542;2022-12-24T04:21:06;6.40;99.90
19862;DHT22;10093;48.148;8.542;2022-12-24T04:23:34;6.50;99.90
19862;DHT22;10093;48.148;8.542;2022-12-24T04:26:01;6.50;99.90
19862;DHT22;10093;48.148;8.542;2022-12-24T04:28:28;6.40;99.90
19862;DHT22;10093;48.148;8.542;2022-12-24T04:30:58;6.40;99.90
19862;DHT22;10093;48.148;8.542;2022-12-24T04:33:24;6.50;99.90
19862;DHT22;10093;48.148;8.542;2022-12-24T04:35:50;6.50;99.90
19862;DHT22;10093;48.148;8.542;2022-12-24T04:38:15;6.50;99.90
19862;DHT22;10093;48.148;8.542;2022-12-24T04:40:41;6.80;99.90
19862;DHT22;10093;48.148;8.542;2022-12-24T04:43:07;6.60;99.90
19862;DHT22;10093;48.148;8.542;2022-12-24T04:45:32;6.50;99.90
19862;DHT22;10093;48.148;8.542;2022-12-24T04:47:58;6.60;99.90
19862;DHT22;10093;48.148;8.542;2022-12-24T04:50:23;6.60;99.90
19862;DHT22;10093;48.148;8.542;2022-12-24T04:52:49;6.60;99.90
19862;DHT22;10093;48.148;8.542;2022-12-24T04:55:15;6.60;99.90
19862;DHT22;10093;48.148;8.542;2022-12-24T04:57:40;6.60;99.90
19862;DHT22;10093;48.148;8.542;2022-12-24T05:00:09;6.80;99.90
19862;DHT22;10093;48.148;8.542;2022-12-24T05:02:35;7.00;99.90
19862;DHT22;10093;48.148;8.542;2022-12-24T05:05:01;7.10;99.90
19862;DHT22;10093;48.148;8.542;2022-12-24T05:07:27;7.00;99.90
19862;DHT22;10093;48.148;8.542;2022-12-24T05:09:53;7.10;99.90
19862;DHT22;10093;48.148;8.542;2022-12-24T05:12:18;7.30;99.90
19862;DHT22;10093;48.148;8.542;2022-12-24T05:14:44;7.30;99.90
19862;DHT22;10093;48.148;8.542;2022-12-24T05:17:09;7.30;99.90
19862;DHT22;10093;48.148;8.542;2022-12-24T05:19:35;7.30;99.90
19862;DHT22;10093;48.148;8.542;2022-12-24T05:22:00;7.20;99.90
19862;DHT22;10093;48.148;8.542;2022-12-24T05:24:44;7.20;99.90
19862;DHT22;10093;48.148;8.542;2022-12-24T05:27:29;7.30;99.90
19862;DHT22;10093;48.148;8.542;2022-12-24T05:29:54;7.20;99.90
19862;DHT22;10093;48.148;8.542;2022-12-24T05:32:20;7.10;99.90
19862;DHT22;10093;48.148;8.542;2022-12-24T05:34:45;7.00;99.90
19862;DHT22;10093;48.148;8.542;2022-12-24T05:37:11;7.00;99.90
19862;DHT22;10093;48.148;8.542;2022-12-24T05:39:36;6.90;99.90
19862;DHT22;10093;48.148;8.542;2022-12-24T05:42:02;6.70;99.90
19862;DHT22;10093;48.148;8.542;2022-12-24T05:44:28;6.90;99.90
19862;DHT22;10093;48.148;8.542;2022-12-24T05:46:53;6.70;99.90
19862;DHT22;10093;48.148;8.542;2022-12-24T05:49:19;6.60;99.90
19862;DHT22;10093;48.148;8.542;2022-12-24T05:51:44;6.60;99.90
19862;DHT22;10093;48.148;8.542;2022-12-24T05:54:10;6.60;99.90
19862;DHT22;10093;48.148;8.542;2022-12-24T05:56:36;6.60;99.90
19862;DHT22;10093;48.148;8.542;2022-12-24T05:59:01;6.60;99.90
19862;DHT22;10093;48.148;8.542;2022-12-24T06:01:27;6.60;99.90
19862;DHT22;10093;48.148;8.542;2022-12-24T06:03:53;6.50;99.90
19862;DHT22;10093;48.148;8.542;2022-12-24T06:06:24;6.40;99.90
19862;DHT22;10093;48.148;8.542;2022-12-24T06:08:51;6.40;99.90
19862;DHT22;10093;48.148;8.542;2022-12-24T06:11:20;6.50;99.90
19862;DHT22;10093;48.148;8.542;2022-12-24T06:13:46;6.50;99.90
19862;DHT22;10093;48.148;8.542;2022-12-24T06:16:14;6.70;99.90
19862;DHT22;10093;48.148;8.542;2022-12-24T06:18:39;6.80;99.90
19862;DHT22;10093;48.148;8.542;2022-12-24T06:21:05;6.90;99.90
19862;DHT22;10093;48.148;8.542;2022-12-24T06:23:33;6.70;99.90
19862;DHT22;10093;48.148;8.542;2022-12-24T06:26:00;6.80;99.90
19862;DHT22;10093;48.148;8.542;2022-12-24T06:28:27;6.70;99.90
19862;DHT22;10093;48.148;8.542;2022-12-24T06:30:53;6.60;99.90
19862;DHT22;10093;48.148;8.542;2022-12-24T06:33:18;6.80;99.90
19862;DHT22;10093;48.148;8.542;2022-12-24T06:35:45;6.60;99.90
19862;DHT22;10093;48.148;8.542;2022-12-24T06:38:10;6.60;99.90
19862;DHT22;10093;48.148;8.542;2022-12-24T06:40:40;6.50;99.90
19862;DHT22;10093;48.148;8.542;2022-12-24T06:43:07;6.60;99.90
19862;DHT22;10093;48.148;8.542;2022-12-24T06:45:32;6.70;99.90
19862;DHT22;10093;48.148;8.542;2022-12-24T06:47:59;6.80;99.90
19862;DHT22;10093;48.148;8.542;2022-12-24T06:50:25;6.80;99.90
19862;DHT22;10093;48.148;8.542;2022-12-24T06:52:50;6.80;99.90
19862;DHT22;10093;48.148;8.542;2022-12-24T06:55:16;6.80;99.90
19862;DHT22;10093;48.148;8.542;2022-12-24T06:57:42;6.90;99.90
19862;DHT22;10093;48.148;8.542;2022-12-24T07:00:09;6.80;99.90
19862;DHT22;10093;48.148;8.542;2022-12-24T07:02:39;6.80;99.90
19862;DHT22;10093;48.148;8.542;2022-12-24T07:05:05;6.70;99.90
19862;DHT22;10093;48.148;8.542;2022-12-24T07:07:31;6.70;99.90
19862;DHT22;10093;48.148;8.542;2022-12-24T07:09:56;6.60;99.90
19862;DHT22;10093;48.148;8.542;2022-12-24T07:12:22;6.70;99.90
19862;DHT22;10093;48.148;8.542;2022-12-24T07:14:47;6.70;99.90
19862;DHT22;10093;48.148;8.542;2022-12-24T07:17:13;6.80;99.90
19862;DHT22;10093;48.148;8.542;2022-12-24T07:19:39;6.70;99.90
19862;DHT22;10093;48.148;8.542;2022-12-24T07:22:04;6.50;99.90
19862;DHT22;10093;48.148;8.542;2022-12-24T07:24:30;6.50;99.90
19862;DHT22;10093;48.148;8.542;2022-12-24T07:26:55;6.40;99.90
19862;DHT22;10093;48.148;8.542;2022-12-24T07:29:21;6.40;99.90
19862;DHT22;10093;48.148;8.542;2022-12-24T07:31:47;6.30;99.90
19862;DHT22;10093;48.148;8.542;2022-12-24T07:34:12;6.20;99.90
19862;DHT22;10093;48.148;8.542;2022-12-24T07:36:38;6.00;99.90
19862;DHT22;10093;48.148;8.542;2022-12-24T07:39:03;6.10;99.90
19862;DHT22;10093;48.148;8.542;2022-12-24T07:41:29;6.10;99.90
19862;DHT22;10093;48.148;8.542;2022-12-24T07:43:54;6.10;99.90
19862;DHT22;10093;48.148;8.542;2022-12-24T07:46:20;6.00;99.90
19862;DHT22;10093;48.148;8.542;2022-12-24T07:48:46;6.00;99.90
19862;DHT22;10093;48.148;8.542;2022-12-24T07:51:11;6.10;99.90
19862;DHT22;10093;48.148;8.542;2022-12-24T07:53:37;6.10;99.90
19862;DHT22;10093;48.148;8.542;2022-12-24T07:56:03;6.10;99.90
19862;DHT22;10093;48.148;8.542;2022-12-24T07:58:29;6.20;99.90
19862;DHT22;10093;48.148;8.542;2022-12-24T08:00:58;6.40;99.90
19862;DHT22;10093;48.148;8.542;2022-12-24T08:03:24;6.60;99.90
19862;DHT22;10093;48.148;8.542;2022-12-24T08:05:50;6.70;99.90
19862;DHT22;10093;48.148;8.542;2022-12-24T08:08:17;6.70;99.90
19862;DHT22;10093;48.148;8.542;2022-12-24T08:10:44;6.60;99.90
19862;DHT22;10093;48.148;8.542;2022-12-24T08:13:11;6.80;99.90
19862;DHT22;10093;48.148;8.542;2022-12-24T08:15:36;6.90;99.90
19862;DHT22;10093;48.148;8.542;2022-12-24T08:18:02;6.80;99.90
19862;DHT22;10093;48.148;8.542;2022-12-24T08:20:28;6.80;99.90
19862;DHT22;10093;48.148;8.542;2022-12-24T08:22:53;6.70;99.90
19862;DHT22;10093;48.148;8.542;2022-12-24T08:25:19;6.80;99.90
19862;DHT22;10093;48.148;8.542;2022-12-24T08:27:46;6.60;99.90
19862;DHT22;10093;48.148;8.542;2022-12-24T08:30:12;6.70;99.90
19862;DHT22;10093;48.148;8.542;2022-12-24T08:32:38;6.80;99.90
19862;DHT22;10093;48.148;8.542;2022-12-24T08:35:03;7.00;99.90
19862;DHT22;10093;48.148;8.542;2022-12-24T08:37:29;6.90;99.90
19862;DHT22;10093;48.148;8.542;2022-12-24T08:39:55;7.00;99.90
19862;DHT22;10093;48.148;8.542;2022-12-24T08:42:20;7.00;99.90
19862;DHT22;10093;48.148;8.542;2022-12-24T08:44:46;7.20;99.90
19862;DHT22;10093;48.148;8.542;2022-12-24T08:47:12;7.20;99.90
19862;DHT22;10093;48.148;8.542;2022-12-24T08:49:37;7.30;99.90
19862;DHT22;10093;48.148;8.542;2022-12-24T08:52:04;7.80;99.90
19862;DHT22;10093;48.148;8.542;2022-12-24T08:54:30;8.00;99.90
19862;DHT22;10093;48.148;8.542;2022-12-24T08:56:56;7.90;99.90
19862;DHT22;10093;48.148;8.542;2022-12-24T08:59:21;7.90;99.90
19862;DHT22;10093;48.148;8.542;2022-12-24T09:01:47;7.90;99.90
19862;DHT22;10093;48.148;8.542;2022-12-24T09:04:12;7.80;99.90
19862;DHT22;10093;48.148;8.542;2022-12-24T09:06:38;7.80;99.90
19862;DHT22;10093;48.148;8.542;2022-12-24T09:09:04;8.20;99.90
19862;DHT22;10093;48.148;8.542;2022-12-24T09:11:30;8.30;99.90
19862;DHT22;10093;48.148;8.542;2022-12-24T09:13:56;8.60;99.90
19862;DHT22;10093;48.148;8.542;2022-12-24T09:16:21;8.80;99.90
19862;DHT22;10093;48.148;8.542;2022-12-24T09:18:47;8.70;99.90
19862;DHT22;10093;48.148;8.542;2022-12-24T09:21:14;9.00;99.90
19862;DHT22;10093;48.148;8.542;2022-12-24T09:23:42;9.20;99.90
19862;DHT22;10093;48.148;8.542;2022-12-24T09:26:15;9.50;99.90
19862;DHT22;10093;48.148;8.542;2022-12-24T09:28:41;9.50;99.90
19862;DHT22;10093;48.148;8.542;2022-12-24T09:31:06;9.50;99.90
19862;DHT22;10093;48.148;8.542;2022-12-24T09:33:35;9.10;99.90
19862;DHT22;10093;48.148;8.542;2022-12-24T09:36:01;9.10;99.90
19862;DHT22;10093;48.148;8.542;2022-12-24T09:38:27;9.00;99.90
19862;DHT22;10093;48.148;8.542;2022-12-24T09:40:54;8.70;99.90
19862;DHT22;10093;48.148;8.542;2022-12-24T09:43:23;8.90;99.90
19862;DHT22;10093;48.148;8.542;2022-12-24T09:46:03;8.90;99.90
19862;DHT22;10093;48.148;8.542;2022-12-24T09:48:33;9.10;99.90
19862;DHT22;10093;48.148;8.542;2022-12-24T09:56:02;9.20;99.90
19862;DHT22;10093;48.148;8.542;2022-12-24T09:58:45;9.40;99.90
19862;DHT22;10093;48.148;8.542;2022-12-24T10:01:13;9.50;99.90
19862;DHT22;10093;48.148;8.542;2022-12-24T10:03:39;9.70;99.90
19862;DHT22;10093;48.148;8.542;2022-12-24T10:06:19;9.80;99.90
19862;DHT22;10093;48.148;8.542;2022-12-24T10:08:52;9.80;99.90
19862;DHT22;10093;48.148;8.542;2022-12-24T10:19:36;10.30;99.90
19862;DHT22;10093;48.148;8.542;2022-12-24T10:27:34;10.60;99.90
19862;DHT22;10093;48.148;8.542;2022-12-24T10:30:13;10.50;99.90
19862;DHT22;10093;48.148;8.542;2022-12-24T10:32:40;10.40;99.90
19862;DHT22;10093;48.148;8.542;2022-12-24T10:37:46;10.50;99.90
19862;DHT22;10093;48.148;8.542;2022-12-24T10:40:39;10.60;99.90
19862;DHT22;10093;48.148;8.542;2022-12-24T10:43:13;10.60;99.90
19862;DHT22;10093;48.148;8.542;2022-12-24T10:45:42;10.80;99.90
19862;DHT22;10093;48.148;8.542;2022-12-24T10:48:13;10.90;99.90
19862;DHT22;10093;48.148;8.542;2022-12-24T10:51:34;11.20;99.90
19862;DHT22;10093;48.148;8.542;2022-12-24T10:53:58;11.50;99.90
19862;DHT22;10093;48.148;8.542;2022-12-24T10:56:25;12.10;99.90
19862;DHT22;10093;48.148;8.542;2022-12-24T10:58:53;12.20;99.90
19862;DHT22;10093;48.148;8.542;2022-12-24T11:04:04;12.20;99.90
19862;DHT22;10093;48.148;8.542;2022-12-24T11:06:30;12.10;99.90
19862;DHT22;10093;48.148;8.542;2022-12-24T11:09:16;12.10;99.90
19862;DHT22;10093;48.148;8.542;2022-12-24T11:11:44;11.90;99.90
19862;DHT22;10093;48.148;8.542;2022-12-24T11:14:15;12.20;99.90
19862;DHT22;10093;48.148;8.542;2022-12-24T11:16:50;12.40;99.90
19862;DHT22;10093;48.148;8.542;2022-12-24T11:19:36;12.60;99.90
19862;DHT22;10093;48.148;8.542;2022-12-24T11:22:27;12.90;99.90
19862;DHT22;10093;48.148;8.542;2022-12-24T11:25:03;13.40;99.90
19862;DHT22;10093;48.148;8.542;2022-12-24T11:27:46;13.50;99.90
19862;DHT22;10093;48.148;8.542;2022-12-24T11:32:44;13.50;99.90
19862;DHT22;10093;48.148;8.542;2022-12-24T11:35:16;13.80;99.90
19862;DHT22;10093;48.148;8.542;2022-12-24T11:37:42;13.60;99.90
19862;DHT22;10093;48.148;8.542;2022-12-24T11:40:19;13.30;99.90
19862;DHT22;10093;48.148;8.542;2022-12-24T11:42:46;13.40;99.90
19862;DHT22;10093;48.148;8.542;2022-12-24T11:45:32;13.60;99.90
19862;DHT22;10093;48.148;8.542;2022-12-24T11:47:59;13.00;99.90
19862;DHT22;10093;48.148;8.542;2022-12-24T11:50:29;12.90;99.90
19862;DHT22;10093;48.148;8.542;2022-12-24T12:04:19;12.10;99.90
19862;DHT22;10093;48.148;8.542;2022-12-24T12:06:51;11.90;99.90
19862;DHT22;10093;48.148;8.542;2022-12-24T12:09:37;11.80;99.90
19862;DHT22;10093;48.148;8.542;2022-12-24T12:14:47;11.70;99.90
19862;DHT22;10093;48.148;8.542;2022-12-24T12:17:35;11.70;99.90
19862;DHT22;10093;48.148;8.542;2022-12-24T12:20:21;11.50;99.90
19862;DHT22;10093;48.148;8.542;2022-12-24T12:25:26;11.70;99.90
19862;DHT22;10093;48.148;8.542;2022-12-24T12:27:55;12.60;99.90
19862;DHT22;10093;48.148;8.542;2022-12-24T12:30:22;13.60;99.90
19862;DHT22;10093;48.148;8.542;2022-12-24T12:33:21;13.90;99.90
19862;DHT22;10093;48.148;8.542;2022-12-24T12:35:49;14.40;99.90
19862;DHT22;10093;48.148;8.542;2022-12-24T12:38:26;14.10;99.90
19862;DHT22;10093;48.148;8.542;2022-12-24T12:55:40;11.00;99.90
19862;DHT22;10093;48.148;8.542;2022-12-24T12:58:36;10.40;99.90
19862;DHT22;10093;48.148;8.542;2022-12-24T13:01:21;10.50;99.90
19862;DHT22;10093;48.148;8.542;2022-12-24T13:12:32;11.40;99.90
19862;DHT22;10093;48.148;8.542;2022-12-24T13:20:29;11.20;99.90
19862;DHT22;10093;48.148;8.542;2022-12-24T13:22:57;11.00;99.90
19862;DHT22;10093;48.148;8.542;2022-12-24T13:25:34;11.10;99.90
19862;DHT22;10093;48.148;8.542;2022-12-24T13:30:45;11.00;99.90
19862;DHT22;10093;48.148;8.542;2022-12-24T13:33:44;10.90;99.90
19862;DHT22;10093;48.148;8.542;2022-12-24T13:36:09;10.90;99.90
19862;DHT22;10093;48.148;8.542;2022-12-24T13:54:41;10.20;99.90
19862;DHT22;10093;48.148;8.542;2022-12-24T14:02:56;10.40;99.90
19862;DHT22;10093;48.148;8.542;2022-12-24T14:05:45;10.30;99.90
19862;DHT22;10093;48.148;8.542;2022-12-24T14:08:15;10.10;99.90
19862;DHT22;10093;48.148;8.542;2022-12-24T14:10:55;10.10;99.90
19862;DHT22;10093;48.148;8.542;2022-12-24T14:16:13;9.70;99.90
19862;DHT22;10093;48.148;8.542;2022-12-24T14:18:41;9.60;99.90
19862;DHT22;10093;48.148;8.542;2022-12-24T14:21:22;9.60;99.90
19862;DHT22;10093;48.148;8.542;2022-12-24T14:23:57;9.80;99.90
19862;DHT22;10093;48.148;8.542;2022-12-24T14:26:31;9.70;99.90
19862;DHT22;10093;48.148;8.542;2022-12-24T14:29:05;9.70;99.90
19862;DHT22;10093;48.148;8.542;2022-12-24T14:31:32;9.80;99.90
19862;DHT22;10093;48.148;8.542;2022-12-24T14:34:05;9.70;99.90
19862;DHT22;10093;48.148;8.542;2022-12-24T14:36:31;9.60;99.90
19862;DHT22;10093;48.148;8.542;2022-12-24T14:38:59;9.60;99.90
19862;DHT22;10093;48.148;8.542;2022-12-24T14:41:46;9.40;99.90
19862;DHT22;10093;48.148;8.542;2022-12-24T14:47:03;8.90;99.90
19862;DHT22;10093;48.148;8.542;2022-12-24T14:52:47;8.80;99.90
19862;DHT22;10093;48.148;8.542;2022-12-24T14:55:50;8.90;99.90
19862;DHT22;10093;48.148;8.542;2022-12-24T14:58:32;8.90;99.90
19862;DHT22;10093;48.148;8.542;2022-12-24T15:01:18;9.10;99.90
19862;DHT22;10093;48.148;8.542;2022-12-24T15:03:44;9.00;99.90
19862;DHT22;10093;48.148;8.542;2022-12-24T15:06:11;8.90;99.90
19862;DHT22;10093;48.148;8.542;2022-12-24T15:08:47;8.70;99.90
19862;DHT22;10093;48.148;8.542;2022-12-24T15:11:18;8.40;99.90
19862;DHT22;10093;48.148;8.542;2022-12-24T15:13:50;8.40;99.90
19862;DHT22;10093;48.148;8.542;2022-12-24T15:16:33;8.60;99.90
19862;DHT22;10093;48.148;8.542;2022-12-24T15:19:03;8.60;99.90
19862;DHT22;10093;48.148;8.542;2022-12-24T15:21:37;8.60;99.90
19862;DHT22;10093;48.148;8.542;2022-12-24T15:24:45;8.60;99.90
19862;DHT22;10093;48.148;8.542;2022-12-24T15:27:17;8.60;99.90
19862;DHT22;10093;48.148;8.542;2022-12-24T15:30:07;8.60;99.90
19862;DHT22;10093;48.148;8.542;2022-12-24T15:32:38;8.60;99.90
19862;DHT22;10093;48.148;8.542;2022-12-24T15:35:03;8.50;99.90
19862;DHT22;10093;48.148;8.542;2022-12-24T15:37:34;8.60;99.90
19862;DHT22;10093;48.148;8.542;2022-12-24T15:40:07;8.60;99.90
19862;DHT22;10093;48.148;8.542;2022-12-24T15:42:34;8.50;99.90
19862;DHT22;10093;48.148;8.542;2022-12-24T15:45:30;8.50;99.90
19862;DHT22;10093;48.148;8.542;2022-12-24T15:48:00;8.50;99.90
19862;DHT22;10093;48.148;8.542;2022-12-24T15:50:32;8.40;99.90
19862;DHT22;10093;48.148;8.542;2022-12-24T15:53:07;8.50;99.90
19862;DHT22;10093;48.148;8.542;2022-12-24T15:55:41;8.50;99.90
19862;DHT22;10093;48.148;8.542;2022-12-24T15:58:25;8.30;99.90
19862;DHT22;10093;48.148;8.542;2022-12-24T16:01:02;8.30;99.90
19862;DHT22;10093;48.148;8.542;2022-12-24T16:03:32;8.30;99.90
19862;DHT22;10093;48.148;8.542;2022-12-24T16:05:59;8.30;99.90
19862;DHT22;10093;48.148;8.542;2022-12-24T16:08:28;8.20;99.90
19862;DHT22;10093;48.148;8.542;2022-12-24T16:16:28;8.20;99.90
19862;DHT22;10093;48.148;8.542;2022-12-24T16:18:58;8.20;99.90
19862;DHT22;10093;48.148;8.542;2022-12-24T16:21:31;8.20;99.90
19862;DHT22;10093;48.148;8.542;2022-12-24T16:24:24;8.20;99.90
19862;DHT22;10093;48.148;8.542;2022-12-24T16:26:49;8.20;99.90
19862;DHT22;10093;48.148;8.542;2022-12-24T16:29:15;8.20;99.90
19862;DHT22;10093;48.148;8.542;2022-12-24T16:31:55;8.20;99.90
19862;DHT22;10093;48.148;8.542;2022-12-24T16:34:24;8.10;99.90
19862;DHT22;10093;48.148;8.542;2022-12-24T16:36:50;8.10;99.90
19862;DHT22;10093;48.148;8.542;2022-12-24T16:39:21;8.10;99.90
19862;DHT22;10093;48.148;8.542;2022-12-24T16:41:47;8.10;99.90
19862;DHT22;10093;48.148;8.542;2022-12-24T16:44:31;8.00;99.90
19862;DHT22;10093;48.148;8.542;2022-12-24T16:46:58;8.00;99.90
19862;DHT22;10093;48.148;8.542;2022-12-24T16:49:25;8.00;99.90
19862;DHT22;10093;48.148;8.542;2022-12-24T16:51:51;8.10;99.90
19862;DHT22;10093;48.148;8.542;2022-12-24T16:54:16;8.10;99.90
19862;DHT22;10093;48.148;8.542;2022-12-24T16:56:43;8.00;99.90
19862;DHT22;10093;48.148;8.542;2022-12-24T16:59:15;8.00;99.90
19862;DHT22;10093;48.148;8.542;2022-12-24T17:01:41;8.00;99.90
19862;DHT22;10093;48.148;8.542;2022-12-24T17:04:07;8.00;99.90
19862;DHT22;10093;48.148;8.542;2022-12-24T17:06:35;8.00;99.90
19862;DHT22;10093;48.148;8.542;2022-12-24T17:09:01;8.00;99.90
19862;DHT22;10093;48.148;8.542;2022-12-24T17:11:26;8.00;99.90
19862;DHT22;10093;48.148;8.542;2022-12-24T17:13:52;7.90;99.90
19862;DHT22;10093;48.148;8.542;2022-12-24T17:16:18;7.90;99.90
19862;DHT22;10093;48.148;8.542;2022-12-24T17:18:43;7.90;99.90
19862;DHT22;10093;48.148;8.542;2022-12-24T17:21:09;7.90;99.90
19862;DHT22;10093;48.148;8.542;2022-12-24T17:23:35;7.90;99.90
19862;DHT22;10093;48.148;8.542;2022-12-24T17:26:01;7.90;99.90
19862;DHT22;10093;48.148;8.542;2022-12-24T17:28:27;7.90;99.90
19862;DHT22;10093;48.148;8.542;2022-12-24T17:30:52;7.90;99.90
19862;DHT22;10093;48.148;8.542;2022-12-24T17:33:18;7.90;99.90
19862;DHT22;10093;48.148;8.542;2022-12-24T17:35:43;7.90;99.90
19862;DHT22;10093;48.148;8.542;2022-12-24T17:38:12;7.90;99.90
19862;DHT22;10093;48.148;8.542;2022-12-24T17:40:38;7.90;99.90
19862;DHT22;10093;48.148;8.542;2022-12-24T17:43:03;7.90;99.90
19862;DHT22;10093;48.148;8.542;2022-12-24T17:45:29;7.90;99.90
19862;DHT22;10093;48.148;8.542;2022-12-24T17:47:54;7.80;99.90
19862;DHT22;10093;48.148;8.542;2022-12-24T17:50:20;7.90;99.90
19862;DHT22;10093;48.148;8.542;2022-12-24T17:52:46;7.90;99.90
19862;DHT22;10093;48.148;8.542;2022-12-24T17:55:11;7.90;99.90
19862;DHT22;10093;48.148;8.542;2022-12-24T17:57:37;7.90;99.90
19862;DHT22;10093;48.148;8.542;2022-12-24T18:00:03;7.90;99.90
19862;DHT22;10093;48.148;8.542;2022-12-24T18:02:29;7.90;99.90
19862;DHT22;10093;48.148;8.542;2022-12-24T18:04:55;7.90;99.90
19862;DHT22;10093;48.148;8.542;2022-12-24T18:07:20;7.80;99.90
19862;DHT22;10093;48.148;8.542;2022-12-24T18:09:46;7.80;99.90
19862;DHT22;10093;48.148;8.542;2022-12-24T18:12:12;7.80;99.90
19862;DHT22;10093;48.148;8.542;2022-12-24T18:14:38;7.70;99.90
19862;DHT22;10093;48.148;8.542;2022-12-24T18:17:03;7.70;99.90